createdAt,value
2019-02-02T11:55:54.412Z,10.95
2019-02-02T11:58:22.472Z,10.90
2019-02-02T12:00:50.470Z,11.73
2019-02-02T12:03:18.506Z,11.95
2019-02-02T12:05:46.564Z,13.05
2019-02-02T12:08:14.591Z,12.45
2019-02-02T12:10:42.616Z,11.53
2019-02-02T12:13:10.684Z,10.98
2019-02-02T12:15:38.822Z,12.30
2019-02-02T12:18:07.427Z,11.70
2019-02-02T12:20:35.581Z,12.53
2019-02-02T12:23:03.624Z,11.48
2019-02-02T12:25:31.636Z,13.05
2019-02-02T12:27:59.643Z,13.60
2019-02-02T12:30:28.757Z,12.82
2019-02-02T12:32:56.807Z,13.35
2019-02-02T12:35:25.814Z,13.78
2019-02-02T12:37:53.852Z,23.00
2019-02-02T12:40:22.665Z,19.92
2019-02-02T12:42:50.692Z,15.15
2019-02-02T12:45:23.244Z,15.75
2019-02-02T12:47:51.261Z,14.03
2019-02-02T12:50:19.325Z,14.28
2019-02-02T12:52:47.339Z,14.00
2019-02-02T12:55:15.528Z,14.23
2019-02-02T12:57:43.563Z,15.30
2019-02-02T13:00:15.782Z,14.93
2019-02-02T13:02:43.820Z,16.07
2019-02-02T13:05:12.222Z,15.78
2019-02-02T13:07:40.239Z,19.45
2019-02-02T13:10:09.896Z,17.55
2019-02-02T13:12:37.920Z,16.82
2019-02-02T13:15:07.114Z,17.52
2019-02-02T13:17:35.138Z,17.30
2019-02-02T13:20:04.750Z,16.62
2019-02-02T13:22:34.481Z,24.32
2019-02-02T13:25:02.597Z,18.70
2019-02-02T13:27:30.757Z,18.00
2019-02-02T13:29:58.823Z,18.45
2019-02-02T13:32:26.850Z,18.55
2019-02-02T13:34:56.677Z,18.42
2019-02-02T13:37:24.653Z,18.07
2019-02-02T13:39:52.675Z,15.50
2019-02-02T13:42:20.715Z,16.65
2019-02-02T13:44:48.768Z,19.98
2019-02-02T13:47:16.829Z,17.17
2019-02-02T13:49:44.922Z,14.23
2019-02-02T13:52:13.032Z,13.38
2019-02-02T13:54:41.090Z,12.28
2019-02-02T13:57:09.123Z,12.63
2019-02-02T13:59:37.155Z,12.55
2019-02-02T14:02:05.228Z,13.22
2019-02-02T14:04:33.274Z,12.45
2019-02-02T14:07:01.340Z,11.93
2019-02-02T14:09:29.368Z,12.07
2019-02-02T14:11:57.693Z,12.30
2019-02-02T14:14:25.724Z,12.25
2019-02-02T14:16:53.842Z,12.88
2019-02-02T14:19:21.887Z,14.23
2019-02-02T14:21:50.000Z,16.00
2019-02-02T14:24:18.045Z,17.27
2019-02-02T14:26:46.173Z,17.95
2019-02-02T14:29:14.225Z,16.02
2019-02-02T14:31:42.269Z,16.32
2019-02-02T14:34:10.309Z,18.02
2019-02-02T14:36:38.404Z,13.72
2019-02-02T14:39:07.637Z,14.15
2019-02-02T14:41:35.686Z,16.95
2019-02-02T14:44:03.746Z,12.85
2019-02-02T14:46:31.753Z,12.68
2019-02-02T14:48:59.847Z,12.35
2019-02-02T14:51:27.878Z,12.78
2019-02-02T14:53:55.940Z,13.38
2019-02-02T14:56:24.031Z,14.85
2019-02-02T14:58:52.104Z,15.35
2019-02-02T15:01:20.338Z,15.00
2019-02-02T15:03:48.383Z,16.17
2019-02-02T15:06:16.423Z,14.55
2019-02-02T15:08:44.496Z,14.53
2019-02-02T15:11:12.519Z,14.73
2019-02-02T15:13:40.571Z,14.23
2019-02-02T15:16:08.599Z,14.98
2019-02-02T15:18:36.641Z,16.00
2019-02-02T15:21:04.683Z,13.48
2019-02-02T15:23:32.774Z,14.05
2019-02-02T15:26:00.937Z,14.13
2019-02-02T15:28:28.987Z,14.70
2019-02-02T15:30:57.110Z,14.23
2019-02-02T15:33:37.241Z,14.28
2019-02-02T15:35:54.918Z,14.15
2019-02-02T15:38:23.022Z,14.15
2019-02-02T15:40:58.730Z,14.18
2019-02-02T15:43:22.348Z,13.55
2019-02-02T15:45:50.619Z,13.80
2019-02-02T15:48:18.680Z,14.20
2019-02-02T15:50:46.752Z,14.53
2019-02-02T15:53:14.782Z,13.62
2019-02-02T15:55:42.955Z,13.03
2019-02-02T15:58:11.023Z,12.60
2019-02-02T16:00:39.243Z,13.38
2019-02-02T16:03:07.295Z,13.90
2019-02-02T16:05:35.542Z,13.68
2019-02-02T16:08:07.726Z,14.53
2019-02-02T16:10:35.764Z,13.28
2019-02-02T16:13:03.787Z,12.63
2019-02-02T16:15:34.056Z,12.13
2019-02-02T16:18:01.600Z,12.37
2019-02-02T16:20:41.932Z,13.68
2019-02-02T16:23:09.462Z,13.55
2019-02-02T16:25:37.464Z,13.03
2019-02-02T16:28:05.512Z,14.60
2019-02-02T16:30:33.554Z,12.82
2019-02-02T16:33:01.594Z,11.80
2019-02-02T16:35:29.711Z,12.70
2019-02-02T16:37:57.738Z,13.38
2019-02-02T16:40:26.834Z,25.40
2019-02-02T16:42:54.843Z,32.78
2019-02-02T16:45:23.651Z,31.27
2019-02-02T16:47:51.885Z,16.62
2019-02-02T16:50:19.960Z,18.82
2019-02-02T16:52:47.999Z,17.42
2019-02-02T16:55:16.615Z,15.40
2019-02-02T16:57:44.662Z,14.60
2019-02-02T17:00:14.327Z,15.13
2019-02-02T17:02:42.396Z,16.55
2019-02-02T17:05:10.788Z,15.90
2019-02-02T17:07:38.913Z,14.15
2019-02-02T17:10:08.647Z,16.42
2019-02-02T17:12:36.900Z,18.73
2019-02-02T17:15:06.514Z,18.75
2019-02-02T17:17:34.521Z,16.70
2019-02-02T17:20:02.627Z,15.83
2019-02-02T17:22:30.658Z,13.70
2019-02-02T17:24:58.770Z,13.98
2019-02-02T17:27:26.794Z,12.73
2019-02-02T17:29:54.843Z,12.88
2019-02-02T17:32:22.871Z,14.60
2019-02-02T17:34:50.911Z,15.53
2019-02-02T17:37:18.951Z,20.55
2019-02-02T17:39:46.985Z,16.27
2019-02-02T17:42:15.082Z,16.80
2019-02-02T17:44:43.124Z,18.45
2019-02-02T17:47:11.145Z,18.65
2019-02-02T17:49:39.175Z,16.73
2019-02-02T17:52:07.217Z,14.95
2019-02-02T17:54:35.514Z,14.50
2019-02-02T17:57:03.534Z,13.85
2019-02-02T17:59:31.557Z,14.65
2019-02-02T18:01:59.598Z,12.60
2019-02-02T18:04:38.743Z,13.18
2019-02-02T18:06:57.367Z,13.98
2019-02-02T18:09:25.419Z,15.10
2019-02-02T18:11:53.449Z,14.95
2019-02-02T18:14:21.483Z,15.20
2019-02-02T18:16:49.579Z,14.80
2019-02-02T18:19:17.932Z,15.00
2019-02-02T18:21:46.359Z,16.00
2019-02-02T18:24:14.383Z,13.93
2019-02-02T18:26:42.438Z,15.65
2019-02-02T18:29:10.477Z,15.88
2019-02-02T18:31:38.529Z,15.58
2019-02-02T18:34:06.681Z,16.62
2019-02-02T18:36:34.741Z,16.73
2019-02-02T18:39:03.254Z,18.00
2019-02-02T18:41:31.306Z,17.77
2019-02-02T18:43:59.344Z,17.25
2019-02-02T18:46:29.047Z,17.50
2019-02-02T18:51:28.302Z,14.75
2019-02-02T18:53:56.328Z,14.73
2019-02-02T18:56:24.516Z,14.90
2019-02-02T18:58:52.542Z,14.05
2019-02-02T19:01:20.601Z,13.50
2019-02-02T19:03:48.694Z,13.75
2019-02-02T19:06:16.732Z,13.85
2019-02-02T19:08:44.785Z,13.83
2019-02-02T19:11:12.788Z,13.83
2019-02-02T19:13:40.839Z,13.68
2019-02-02T19:16:08.844Z,14.13
2019-02-02T19:18:36.884Z,20.65
2019-02-02T19:21:04.902Z,14.23
2019-02-02T19:23:32.943Z,14.15
2019-02-02T19:26:00.960Z,14.78
2019-02-02T19:28:39.364Z,13.90
2019-02-02T19:30:58.824Z,14.55
2019-02-02T19:33:26.869Z,15.18
2019-02-02T19:35:53.557Z,14.83
2019-02-02T19:38:20.073Z,14.18
2019-02-02T19:40:46.648Z,18.60
2019-02-02T19:43:13.132Z,20.17
2019-02-02T19:45:39.594Z,17.98
2019-02-02T19:48:06.095Z,19.45
2019-02-02T19:50:32.617Z,17.57
2019-02-02T19:52:59.148Z,20.92
2019-02-02T19:55:25.739Z,21.12
2019-02-02T19:57:52.209Z,18.48
2019-02-02T20:00:20.109Z,19.82
2019-02-02T20:02:46.566Z,19.10
2019-02-02T20:05:13.084Z,20.60
2019-02-02T20:07:39.594Z,21.40
2019-02-02T20:10:08.061Z,18.15
2019-02-02T20:12:34.548Z,17.77
2019-02-02T20:15:01.044Z,16.25
2019-02-02T20:17:27.589Z,17.45
2019-02-02T20:19:54.090Z,17.15
2019-02-02T20:22:20.523Z,15.88
2019-02-02T20:24:47.056Z,18.05
2019-02-02T20:27:13.536Z,16.75
2019-02-02T20:29:40.045Z,19.62
2019-02-02T20:32:06.528Z,20.10
2019-02-02T20:34:32.990Z,17.85
2019-02-02T20:36:59.491Z,17.82
2019-02-02T20:39:26.055Z,17.75
2019-02-02T20:41:52.557Z,16.40
2019-02-02T20:44:19.030Z,14.87
2019-02-02T20:46:45.527Z,15.83
2019-02-02T20:49:12.021Z,14.83
2019-02-02T20:51:38.524Z,15.32
2019-02-02T20:54:05.039Z,16.10
2019-02-02T20:56:31.508Z,14.70
2019-02-02T20:58:58.175Z,14.70
2019-02-02T21:01:24.782Z,15.03
2019-02-02T21:03:51.227Z,16.50
2019-02-02T21:06:17.754Z,16.07
2019-02-02T21:08:44.340Z,15.68
2019-02-02T21:11:10.919Z,15.68
2019-02-02T21:13:37.396Z,15.00
2019-02-02T21:16:03.904Z,15.83
2019-02-02T21:18:30.386Z,15.85
2019-02-02T21:20:56.871Z,15.78
2019-02-02T21:23:23.370Z,14.30
2019-02-02T21:25:49.866Z,14.30
2019-02-02T21:28:16.344Z,14.87
2019-02-02T21:30:42.957Z,16.62
2019-02-02T21:33:09.497Z,15.55
2019-02-02T21:35:36.134Z,15.28
2019-02-02T21:38:02.744Z,14.63
2019-02-02T21:40:30.536Z,14.65
2019-02-02T21:42:57.111Z,14.68
2019-02-02T21:45:23.580Z,13.80
2019-02-02T21:47:50.536Z,15.48
2019-02-02T21:50:17.997Z,13.95
2019-02-02T21:52:44.495Z,14.35
2019-02-02T21:55:12.290Z,13.70
2019-02-02T21:57:38.857Z,15.13
2019-02-02T22:00:12.846Z,14.73
2019-02-02T22:02:39.634Z,15.50
2019-02-02T22:05:06.089Z,15.78
2019-02-02T22:07:32.562Z,16.50
2019-02-02T22:09:59.040Z,16.45
2019-02-02T22:12:25.504Z,16.67
2019-02-02T22:14:52.003Z,16.12
2019-02-02T22:17:18.591Z,16.07
2019-02-02T22:19:45.384Z,15.43
2019-02-02T22:22:11.874Z,15.55
2019-02-02T22:24:38.537Z,14.85
2019-02-02T22:27:05.010Z,15.55
2019-02-02T22:29:31.501Z,14.40
2019-02-02T22:31:58.146Z,15.50
2019-02-02T22:34:24.772Z,15.40
2019-02-02T22:36:51.408Z,16.70
2019-02-02T22:39:17.968Z,17.37
2019-02-02T22:41:44.458Z,16.97
2019-02-02T22:44:10.938Z,15.25
2019-02-02T22:46:37.533Z,15.20
2019-02-02T22:49:04.418Z,17.23
2019-02-02T22:51:30.885Z,16.00
2019-02-02T22:53:57.357Z,16.75
2019-02-02T22:56:23.965Z,16.95
2019-02-02T22:58:50.586Z,16.52
2019-02-02T23:01:20.151Z,16.75
2019-02-02T23:03:48.555Z,16.90
2019-02-02T23:06:17.059Z,15.93
2019-02-02T23:08:51.555Z,15.38
2019-02-02T23:11:20.010Z,15.38
2019-02-02T23:13:54.498Z,15.63
2019-02-02T23:16:24.666Z,17.37
2019-02-02T23:18:51.532Z,19.62
2019-02-02T23:21:18.122Z,17.92
2019-02-02T23:23:44.574Z,18.62
2019-02-02T23:26:11.057Z,18.00
2019-02-02T23:28:37.716Z,18.62
2019-02-02T23:31:04.182Z,18.27
2019-02-02T23:33:30.713Z,20.00
2019-02-02T23:35:57.532Z,18.67
2019-02-02T23:38:24.120Z,18.48
2019-02-02T23:40:50.755Z,19.87
2019-02-02T23:43:17.258Z,20.23
2019-02-02T23:45:43.816Z,19.48
2019-02-02T23:48:10.328Z,20.50
2019-02-02T23:50:36.795Z,20.50
2019-02-02T23:53:03.549Z,19.80
2019-02-02T23:55:30.061Z,20.75
2019-02-02T23:57:56.559Z,20.02
